ALT15 KGTB-KPBG
Flight info
| Callsign | ALT15 |
|---|---|
| Flight time | 0h 23m |
| Altitude | 21000 |
| Route | SRNAC |
| Aircraft | B738/M-SDE2E3FGHIRWXY/LB1 |
Departure
| Time | 2026-05-06 15:37 |
|---|---|
| Airport | Wheeler Sack Army Air Field (KGTB) |
Arrival
| Time | 2026-05-06 16:00 |
|---|---|
| Airport | Plattsburgh International Airport (KPBG) |
| Time | Latitude | Longitude | Altitude | Speed | Heading |
|---|---|---|---|---|---|
| 2026-05-06 15:26 | 44.05790 | -75.71053 | 701 ft | 0 kts | 221° |
| 2026-05-06 15:30 | 44.05789 | -75.71055 | 701 ft | 1 kts | 221° |
| 2026-05-06 15:30 | 44.05772 | -75.71070 | 701 ft | 4 kts | 200° |
| 2026-05-06 15:31 | 44.05728 | -75.71070 | 701 ft | 8 kts | 160° |
| 2026-05-06 15:31 | 44.05668 | -75.71028 | 701 ft | 11 kts | 151° |
| 2026-05-06 15:31 | 44.05587 | -75.70985 | 700 ft | 13 kts | 163° |
| 2026-05-06 15:32 | 44.05361 | -75.71014 | 698 ft | 21 kts | 202° |
| 2026-05-06 15:32 | 44.05210 | -75.71107 | 694 ft | 26 kts | 202° |
| 2026-05-06 15:32 | 44.05024 | -75.71191 | 689 ft | 30 kts | 197° |
| 2026-05-06 15:32 | 44.04818 | -75.71294 | 682 ft | 26 kts | 216° |
| 2026-05-06 15:33 | 44.04742 | -75.71503 | 686 ft | 23 kts | 250° |
| 2026-05-06 15:33 | 44.04680 | -75.71713 | 689 ft | 24 kts | 247° |
| 2026-05-06 15:33 | 44.04614 | -75.71928 | 690 ft | 23 kts | 247° |
| 2026-05-06 15:33 | 44.04571 | -75.72097 | 691 ft | 14 kts | 281° |
| 2026-05-06 15:34 | 44.04657 | -75.72173 | 691 ft | 16 kts | 341° |
| 2026-05-06 15:34 | 44.04773 | -75.72224 | 690 ft | 18 kts | 341° |
| 2026-05-06 15:34 | 44.04903 | -75.72289 | 689 ft | 21 kts | 339° |
| 2026-05-06 15:34 | 44.05036 | -75.72359 | 688 ft | 10 kts | 340° |
| 2026-05-06 15:35 | 44.05084 | -75.72364 | 688 ft | 0 kts | 9° |
| 2026-05-06 15:35 | 44.05087 | -75.72363 | 688 ft | 0 kts | 9° |
| 2026-05-06 15:37 | 44.05219 | -75.72315 | 688 ft | 62 kts | 18° |
| 2026-05-06 15:37 | 44.05987 | -75.72012 | 720 ft | 162 kts | 16° |
| 2026-05-06 15:37 | 44.07125 | -75.71603 | 1950 ft | 182 kts | 14° |
| 2026-05-06 15:37 | 44.08417 | -75.71623 | 3256 ft | 206 kts | 345° |
| 2026-05-06 15:38 | 44.09771 | -75.72093 | 4682 ft | 219 kts | 355° |
| 2026-05-06 15:38 | 44.11292 | -75.71526 | 5830 ft | 251 kts | 31° |
| 2026-05-06 15:38 | 44.12435 | -75.69664 | 6863 ft | 267 kts | 67° |
| 2026-05-06 15:38 | 44.12699 | -75.67112 | 7735 ft | 280 kts | 100° |
| 2026-05-06 15:39 | 44.12230 | -75.64436 | 8632 ft | 294 kts | 112° |
| 2026-05-06 15:39 | 44.11669 | -75.61671 | 9570 ft | 310 kts | 107° |
| 2026-05-06 15:39 | 44.11429 | -75.58622 | 10571 ft | 327 kts | 95° |
| 2026-05-06 15:39 | 44.11597 | -75.55387 | 11426 ft | 346 kts | 84° |
| 2026-05-06 15:40 | 44.12096 | -75.52026 | 12201 ft | 366 kts | 77° |
| 2026-05-06 15:40 | 44.12780 | -75.48582 | 12962 ft | 383 kts | 75° |
| 2026-05-06 15:40 | 44.13557 | -75.44993 | 13825 ft | 396 kts | 74° |
| 2026-05-06 15:40 | 44.14381 | -75.41295 | 14789 ft | 405 kts | 73° |
| 2026-05-06 15:41 | 44.15199 | -75.37558 | 15884 ft | 408 kts | 74° |
| 2026-05-06 15:41 | 44.16008 | -75.33787 | 16906 ft | 412 kts | 75° |
| 2026-05-06 15:41 | 44.16813 | -75.29942 | 17820 ft | 418 kts | 75° |
| 2026-05-06 15:41 | 44.17609 | -75.26078 | 18744 ft | 423 kts | 75° |
| 2026-05-06 15:42 | 44.18430 | -75.22082 | 19598 ft | 430 kts | 75° |
| 2026-05-06 15:42 | 44.19250 | -75.18076 | 20395 ft | 436 kts | 75° |
| 2026-05-06 15:42 | 44.20074 | -75.14048 | 20779 ft | 443 kts | 76° |
| 2026-05-06 15:42 | 44.20927 | -75.09870 | 20839 ft | 445 kts | 75° |
| 2026-05-06 15:43 | 44.21757 | -75.05806 | 20828 ft | 440 kts | 76° |
| 2026-05-06 15:43 | 44.22600 | -75.01670 | 20833 ft | 441 kts | 75° |
| 2026-05-06 15:43 | 44.23429 | -74.97591 | 20824 ft | 441 kts | 75° |
| 2026-05-06 15:43 | 44.24268 | -74.93446 | 20822 ft | 443 kts | 76° |
| 2026-05-06 15:44 | 44.25095 | -74.89338 | 20821 ft | 442 kts | 76° |
| 2026-05-06 15:44 | 44.25923 | -74.85213 | 20821 ft | 445 kts | 76° |
| 2026-05-06 15:44 | 44.26743 | -74.81108 | 20813 ft | 440 kts | 76° |
| 2026-05-06 15:44 | 44.27565 | -74.76986 | 20819 ft | 441 kts | 76° |
| 2026-05-06 15:45 | 44.28381 | -74.72882 | 20826 ft | 443 kts | 75° |
| 2026-05-06 15:45 | 44.29208 | -74.68737 | 20641 ft | 447 kts | 75° |
| 2026-05-06 15:45 | 44.30032 | -74.64597 | 20240 ft | 438 kts | 76° |
| 2026-05-06 15:45 | 44.30827 | -74.60587 | 20004 ft | 424 kts | 76° |
| 2026-05-06 15:46 | 44.31596 | -74.56722 | 19803 ft | 409 kts | 76° |
| 2026-05-06 15:46 | 44.32346 | -74.52940 | 19518 ft | 397 kts | 76° |
| 2026-05-06 15:46 | 44.33064 | -74.49301 | 19214 ft | 388 kts | 76° |
| 2026-05-06 15:46 | 44.33771 | -74.45703 | 18756 ft | 384 kts | 77° |
| 2026-05-06 15:47 | 44.34463 | -74.42132 | 18249 ft | 382 kts | 76° |
| 2026-05-06 15:47 | 44.35148 | -74.38562 | 17695 ft | 382 kts | 76° |
| 2026-05-06 15:47 | 44.35836 | -74.34972 | 17128 ft | 380 kts | 77° |
| 2026-05-06 15:47 | 44.36507 | -74.31473 | 16693 ft | 375 kts | 77° |
| 2026-05-06 15:48 | 44.37179 | -74.27969 | 16180 ft | 372 kts | 78° |
| 2026-05-06 15:48 | 44.37848 | -74.24494 | 15645 ft | 370 kts | 77° |
| 2026-05-06 15:48 | 44.38497 | -74.21043 | 15169 ft | 365 kts | 79° |
| 2026-05-06 15:48 | 44.38948 | -74.17575 | 14614 ft | 361 kts | 86° |
| 2026-05-06 15:49 | 44.39209 | -74.14143 | 14127 ft | 356 kts | 89° |
| 2026-05-06 15:49 | 44.39405 | -74.10741 | 13635 ft | 353 kts | 89° |
| 2026-05-06 15:49 | 44.39601 | -74.07321 | 13113 ft | 351 kts | 89° |
| 2026-05-06 15:49 | 44.39814 | -74.03946 | 12621 ft | 348 kts | 88° |
| 2026-05-06 15:50 | 44.40043 | -74.00645 | 12160 ft | 344 kts | 88° |
| 2026-05-06 15:50 | 44.40287 | -73.97317 | 11695 ft | 341 kts | 88° |
| 2026-05-06 15:50 | 44.40530 | -73.94076 | 11192 ft | 340 kts | 87° |
| 2026-05-06 15:50 | 44.40777 | -73.90810 | 10792 ft | 334 kts | 87° |
| 2026-05-06 15:51 | 44.41020 | -73.87631 | 10501 ft | 326 kts | 87° |
| 2026-05-06 15:51 | 44.41254 | -73.84528 | 10204 ft | 318 kts | 87° |
| 2026-05-06 15:51 | 44.41483 | -73.81493 | 9927 ft | 312 kts | 87° |
| 2026-05-06 15:51 | 44.41713 | -73.78498 | 9664 ft | 305 kts | 88° |
| 2026-05-06 15:52 | 44.41935 | -73.75561 | 9271 ft | 302 kts | 87° |
| 2026-05-06 15:52 | 44.42144 | -73.72666 | 8930 ft | 299 kts | 88° |
| 2026-05-06 15:52 | 44.42347 | -73.69791 | 8592 ft | 296 kts | 88° |
| 2026-05-06 15:52 | 44.42541 | -73.66978 | 8247 ft | 293 kts | 88° |
| 2026-05-06 15:53 | 44.42740 | -73.64141 | 7869 ft | 291 kts | 88° |
| 2026-05-06 15:53 | 44.42926 | -73.61354 | 7550 ft | 287 kts | 88° |
| 2026-05-06 15:53 | 44.43113 | -73.58599 | 7185 ft | 284 kts | 88° |
| 2026-05-06 15:53 | 44.43309 | -73.55870 | 6794 ft | 283 kts | 88° |
| 2026-05-06 15:54 | 44.43508 | -73.53152 | 6619 ft | 273 kts | 88° |
| 2026-05-06 15:54 | 44.43702 | -73.50588 | 6471 ft | 264 kts | 88° |
| 2026-05-06 15:54 | 44.43887 | -73.48067 | 6289 ft | 257 kts | 88° |
| 2026-05-06 15:54 | 44.44063 | -73.45599 | 6009 ft | 254 kts | 88° |
| 2026-05-06 15:55 | 44.44236 | -73.43160 | 5742 ft | 251 kts | 87° |
| 2026-05-06 15:55 | 44.44460 | -73.40796 | 5614 ft | 243 kts | 80° |
| 2026-05-06 15:55 | 44.45152 | -73.38629 | 5302 ft | 246 kts | 49° |
| 2026-05-06 15:55 | 44.46531 | -73.37362 | 5206 ft | 235 kts | 14° |
| 2026-05-06 15:56 | 44.48093 | -73.37160 | 5150 ft | 218 kts | 352° |
| 2026-05-06 15:56 | 44.49524 | -73.37596 | 5035 ft | 204 kts | 333° |
| 2026-05-06 15:56 | 44.50732 | -73.38566 | 4742 ft | 203 kts | 327° |
| 2026-05-06 15:56 | 44.52036 | -73.39423 | 4254 ft | 211 kts | 337° |
| 2026-05-06 15:57 | 44.53029 | -73.39933 | 4239 ft | 196 kts | 337° |
| 2026-05-06 15:57 | 44.53642 | -73.40253 | 4290 ft | 185 kts | 337° |
| 2026-05-06 15:58 | 44.54826 | -73.40925 | 3998 ft | 184 kts | 335° |
| 2026-05-06 15:58 | 44.56002 | -73.41627 | 3557 ft | 188 kts | 335° |
| 2026-05-06 15:58 | 44.57183 | -73.42400 | 3065 ft | 192 kts | 334° |
| 2026-05-06 15:58 | 44.58358 | -73.43159 | 2589 ft | 171 kts | 336° |
| 2026-05-06 15:59 | 44.59429 | -73.43640 | 2229 ft | 153 kts | 347° |
| 2026-05-06 15:59 | 44.60370 | -73.44124 | 1904 ft | 139 kts | 339° |
| 2026-05-06 15:59 | 44.61242 | -73.44647 | 1438 ft | 139 kts | 337° |
| 2026-05-06 15:59 | 44.62148 | -73.45154 | 885 ft | 143 kts | 339° |
| 2026-05-06 16:00 | 44.63055 | -73.45646 | 439 ft | 139 kts | 339° |
| 2026-05-06 16:00 | 44.63919 | -73.46129 | 172 ft | 124 kts | 338° |
| 2026-05-06 16:00 | 44.64560 | -73.46498 | 180 ft | 66 kts | 338° |
| 2026-05-06 16:00 | 44.64884 | -73.46685 | 186 ft | 41 kts | 338° |
| 2026-05-06 16:01 | 44.65113 | -73.46822 | 188 ft | 29 kts | 337° |
| 2026-05-06 16:01 | 44.65268 | -73.46885 | 189 ft | 17 kts | 25° |
| 2026-05-06 16:01 | 44.65318 | -73.46788 | 189 ft | 8 kts | 68° |